Argonne, South Dakota
Current Conditions -  °F | °C
As of 7:15 AM on Friday 24 Oct 2014 (Local Time) from KMDS Reporting Station
Moderate Fog Moderate Fog  
Wind Chill: 41°   Ceiling: Unl
Heat Index: 41°   Visibility: 0mi
Dew Point: 41°   Wind: 3mph
Humidity: 100%   Direction: 230°SW
Pressure: 29.84"   Gusts: NA
Location:  44.0529°N, 97.5161°W
Report Text: KMDS 241215Z AUTO 23003KT M1/4SM FG VV000 05/05 A2984 RMK AO2
Loading
Personal Weather Stations






























Interactive Weather Map
Tropical Storm Tracking
New forecast layout! Learn more

10-Day Weather Forecast

Advertisements
Track Severe Weather on mobile